Hardin, Illinois
Current Conditions -  °F | °C
As of 2:54 AM on Saturday 20 Dec 2014 (Local Time) from KSET Reporting Station
Haze Haze  
Wind Chill: 30°   Ceiling: 5000
Heat Index: 34°   Visibility: 5mi
Dew Point: 31°   Wind: 5mph
Humidity: 89%   Direction: 90°E
Pressure: 30.26"   Gusts: NA
Location:  39.16°N, 90.62°W
Report Text: KSET 200854Z AUTO 09004KT 5SM BR SCT029 OVC050 01/M01 A3026 RMK AO2 SLP250 T00111006 58002
Loading
Personal Weather Stations






























Interactive Weather Map New forecast layout! Learn more

10-Day Weather Forecast

Advertisements
Track Severe Weather on mobile